Time;durP1;ratioP1;P1;durP2;ratioP2;P2;SDS_P1;SDS_P2;PMS_P1;PMS_P2;Temp;Humidity;BMP_temperature;BMP_pressure;BME280_temperature;BME280_humidity;BME280_pressure;Samples;Min_cycle;Max_cycle;Signal;HPM_P1;HPM_P2
2022/05/12 00:02:07;;;;;;;59.40;54.30;;;;;;;11.34;100.00;101608.59;1843060;76;86158;-74
2022/05/12 00:07:52;;;;;;;62.50;57.23;;;;;;;11.36;100.00;101613.89;1795465;78;86372;-71
2022/05/12 00:13:38;;;;;;;64.47;58.67;;;;;;;11.20;100.00;101614.94;1798793;77;86099;-71
2022/05/12 00:19:22;;;;;;;62.23;56.90;;;;;;;11.26;100.00;101626.34;1977298;71;39489;-72
2022/05/12 00:25:11;;;;;;;62.20;56.87;;;;;;;11.31;100.00;101638.89;1816714;76;86207;-72
2022/05/12 00:30:58;;;;;;;60.73;55.17;;;;;;;11.21;100.00;101641.64;1884248;74;86084;-73
2022/05/12 00:36:43;;;;;;;63.07;57.73;;;;;;;10.92;100.00;101651.74;1888952;75;86288;-71
2022/05/12 00:42:29;;;;;;;59.53;54.10;;;;;;;10.96;100.00;101652.88;1914056;72;86501;-72
2022/05/12 00:48:13;;;;;;;60.80;55.73;;;;;;;11.01;100.00;101640.96;1986379;71;39693;-74
2022/05/12 00:54:02;;;;;;;62.70;57.13;;;;;;;10.78;100.00;101645.55;1825630;76;86400;-71
2022/05/12 00:59:45;;;;;;;61.67;56.07;;;;;;;10.71;100.00;101647.70;1868871;75;85977;-72
2022/05/12 01:05:30;;;;;;;62.07;56.97;;;;;;;10.76;100.00;101660.25;1944349;71;86260;-73
2022/05/12 01:11:18;;;;;;;62.03;56.67;;;;;;;10.93;100.00;101665.09;1946301;71;39671;-73
2022/05/12 01:17:06;;;;;;;61.00;55.90;;;;;;;10.87;100.00;101668.38;1974322;71;86287;-72
2022/05/12 01:22:54;;;;;;;60.20;54.73;;;;;;;10.66;100.00;101670.73;1887859;74;86941;-71
2022/05/12 01:28:40;;;;;;;58.33;53.00;;;;;;;10.65;100.00;101680.19;1810305;77;86296;-73
2022/05/12 01:34:23;;;;;;;62.30;56.90;;;;;;;10.95;100.00;101674.83;1954653;71;39567;-74
2022/05/12 01:40:11;;;;;;;59.17;53.77;;;;;;;10.62;100.00;101680.70;1856010;76;85410;-72
2022/05/12 01:45:55;;;;;;;58.40;53.50;;;;;;;10.65;100.00;101684.91;1893175;74;86389;-73
2022/05/12 01:51:39;;;;;;;58.70;53.20;;;;;;;10.73;100.00;101684.41;1872285;75;85958;-73
2022/05/12 01:57:24;;;;;;;57.67;52.17;;;;;;;10.70;100.00;101691.32;1855263;76;86349;-72
2022/05/12 02:03:07;;;;;;;59.10;54.30;;;;;;;10.42;100.00;101695.80;1825875;76;86333;-72
2022/05/12 02:08:52;;;;;;;58.53;53.43;;;;;;;10.26;100.00;101691.22;1809121;78;86689;-72
2022/05/12 02:14:37;;;;;;;59.40;53.80;;;;;;;10.34;100.00;101693.52;1805564;77;86286;-72
2022/05/12 02:20:23;;;;;;;58.67;52.93;;;;;;;10.50;100.00;101693.94;1984011;71;39534;-72
2022/05/12 02:26:06;;;;;;;58.97;53.47;;;;;;;10.29;100.00;101692.91;1831164;77;86307;-73
2022/05/12 02:31:53;;;;;;;59.77;54.37;;;;;;;10.26;100.00;101692.06;1892262;74;85945;-73
2022/05/12 02:37:36;;;;;;;59.23;53.83;;;;;;;10.38;100.00;101704.38;1804276;77;86095;-74
2022/05/12 02:43:25;;;;;;;60.47;54.77;;;;;;;10.41;100.00;101706.62;1937048;73;86360;-72
2022/05/12 02:49:10;;;;;;;58.67;53.37;;;;;;;10.05;100.00;101717.32;1981599;71;39736;-72
2022/05/12 02:54:54;;;;;;;58.73;53.27;;;;;;;10.16;100.00;101714.70;1888117;74;86057;-74
2022/05/12 03:00:38;;;;;;;56.13;50.97;;;;;;;10.24;100.00;101715.07;1808878;77;86268;-71
2022/05/12 03:06:23;;;;;;;57.23;52.13;;;;;;;9.88;100.00;101718.53;1977810;71;40015;-72
2022/05/12 03:12:08;;;;;;;55.30;50.10;;;;;;;9.92;100.00;101728.86;1839060;76;86089;-73
2022/05/12 03:17:53;;;;;;;56.70;51.83;;;;;;;9.58;100.00;101737.02;1809729;78;86330;-71
2022/05/12 03:23:40;;;;;;;56.03;50.93;;;;;;;9.50;100.00;101738.28;1808549;77;86339;-71
2022/05/12 03:29:27;;;;;;;53.43;48.13;;;;;;;9.68;100.00;101729.36;1937166;73;86363;-72
2022/05/12 03:35:13;;;;;;;55.33;49.83;;;;;;;9.69;100.00;101722.17;1979472;71;39671;-71
2022/05/12 03:40:58;;;;;;;57.27;51.37;;;;;;;9.52;100.00;101735.27;1887848;74;86127;-73
2022/05/12 03:46:42;;;;;;;54.33;49.13;;;;;;;9.70;100.00;101742.44;1892295;75;86343;-74
2022/05/12 03:52:26;;;;;;;56.63;51.30;;;;;;;9.90;100.00;101739.36;1936226;73;86141;-71
2022/05/12 03:58:10;;;;;;;57.33;51.77;;;;;;;9.79;100.00;101751.45;1810978;78;86695;-74
2022/05/12 04:03:54;;;;;;;53.10;47.93;;;;;;;9.75;100.00;101746.67;1800426;78;86794;-74
2022/05/12 04:09:38;;;;;;;54.67;48.77;;;;;;;9.57;100.00;101750.59;1808851;77;85702;-71
2022/05/12 04:15:24;;;;;;;51.90;46.77;;;;;;;9.49;100.00;101764.36;1839684;77;86727;-71
2022/05/12 04:21:12;;;;;;;56.73;50.70;;;;;;;9.46;100.00;101766.23;1984831;71;39597;-73
2022/05/12 04:26:57;;;;;;;53.50;47.93;;;;;;;9.19;100.00;101762.52;1898835;74;86284;-74
2022/05/12 04:32:42;;;;;;;56.43;50.97;;;;;;;9.06;100.00;101748.47;1871218;75;86326;-73
2022/05/12 04:38:27;;;;;;;57.57;51.97;;;;;;;9.25;100.00;101761.48;1941460;73;85460;-74
2022/05/12 04:44:12;;;;;;;55.73;50.83;;;;;;;9.37;100.00;101769.15;1987421;71;39491;-73
2022/05/12 04:49:58;;;;;;;53.70;48.50;;;;;;;9.39;100.00;101777.22;1879246;75;86455;-72
2022/05/12 04:55:45;;;;;;;56.47;51.07;;;;;;;9.41;100.00;101783.38;1884539;74;86258;-72
2022/05/12 05:01:27;;;;;;;55.27;49.80;;;;;;;9.51;100.00;101787.66;1903083;72;86577;-74
2022/05/12 05:07:12;;;;;;;73.07;66.47;;;;;;;9.61;100.00;101801.69;1982149;70;39556;-72
2022/05/12 05:12:57;;;;;;;73.13;66.93;;;;;;;9.63;100.00;101803.64;1884253;74;85591;-70
2022/05/12 05:18:39;;;;;;;71.50;65.20;;;;;;;9.77;100.00;101800.80;1808890;77;86322;-72
2022/05/12 05:24:24;;;;;;;72.83;66.80;;;;;;;9.89;100.00;101807.05;1816128;78;86821;-73
2022/05/12 05:30:16;;;;;;;73.77;67.17;;;;;;;10.13;100.00;101808.20;1803928;78;86478;-72
2022/05/12 05:36:01;;;;;;;77.27;70.77;;;;;;;10.09;100.00;101811.20;1980074;70;86164;-74
2022/05/12 05:41:45;;;;;;;73.43;67.33;;;;;;;10.06;100.00;101806.45;1879914;74;86340;-73
2022/05/12 05:47:29;;;;;;;73.07;66.87;;;;;;;10.13;100.00;101811.82;1939772;73;85215;-74
2022/05/12 05:53:26;;;;;;;76.07;69.03;;;;;;;10.37;100.00;101829.91;1981083;71;39777;-74
2022/05/12 05:59:08;;;;;;;72.60;66.00;;;;;;;10.50;100.00;101847.56;1802299;78;86089;-73
2022/05/12 06:04:53;;;;;;;80.63;74.13;;;;;;;10.68;100.00;101855.25;1809365;78;86391;-73
2022/05/12 06:10:37;;;;;;;79.30;72.50;;;;;;;10.72;100.00;101854.47;1863898;75;86643;-74
2022/05/12 06:16:22;;;;;;;87.37;80.27;;;;;;;10.87;100.00;101865.73;1983619;71;39585;-71
2022/05/12 06:22:06;;;;;;;83.47;76.70;;;;;;;11.02;100.00;101868.38;1838600;76;86251;-73
2022/05/12 06:27:51;;;;;;;83.93;77.07;;;;;;;11.18;100.00;101867.41;1839555;76;86153;-73
2022/05/12 06:33:36;;;;;;;80.03;73.50;;;;;;;11.22;100.00;101879.69;1864286;75;86534;-70
2022/05/12 06:39:21;;;;;;;62.40;56.93;;;;;;;11.36;100.00;101878.15;1980241;71;39761;-73
2022/05/12 06:45:08;;;;;;;64.83;58.80;;;;;;;11.56;100.00;101884.42;1853982;76;85820;-72
2022/05/12 06:50:52;;;;;;;70.87;65.10;;;;;;;11.79;100.00;101885.47;1798247;78;86275;-73
2022/05/12 06:56:37;;;;;;;69.00;63.00;;;;;;;12.07;100.00;101896.77;1836907;76;86125;-72
2022/05/12 07:02:19;;;;;;;76.20;70.10;;;;;;;12.10;100.00;101898.48;1981656;71;39705;-69
2022/05/12 07:08:04;;;;;;;67.60;62.10;;;;;;;12.37;100.00;101891.34;1901123;74;86535;-69
2022/05/12 07:13:48;;;;;;;70.43;64.23;;;;;;;12.48;100.00;101879.70;1887969;74;86450;-72
2022/05/12 07:19:35;;;;;;;71.20;65.27;;;;;;;12.66;100.00;101897.34;1805953;76;86397;-68
2022/05/12 07:31:24;;;;;;;66.37;61.30;;;;;;;12.97;100.00;101884.29;1925672;71;39636;-72
2022/05/12 07:37:08;;;;;;;66.77;61.33;;;;;;;13.21;100.00;101899.45;1973075;71;86051;-73
2022/05/12 07:42:52;;;;;;;67.47;62.27;;;;;;;13.52;100.00;101899.72;1798578;78;86414;-68
2022/05/12 07:48:38;;;;;;;64.93;59.70;;;;;;;13.86;100.00;101903.34;1860245;76;86064;-69
2022/05/12 07:54:23;;;;;;;66.77;61.93;;;;;;;14.17;100.00;101899.90;1920627;71;39775;-74
2022/05/12 08:00:12;;;;;;;65.77;60.90;;;;;;;14.23;100.00;101905.20;1816292;76;85633;-74
2022/05/12 08:05:58;;;;;;;57.50;53.60;;;;;;;14.66;100.00;101899.48;1884497;74;86105;-72
2022/05/12 08:11:45;;;;;;;64.10;59.63;;;;;;;14.78;100.00;101895.77;1851092;76;85746;-74
2022/05/12 08:17:29;;;;;;;59.13;55.13;;;;;;;15.02;100.00;101893.10;1913205;72;86623;-68
2022/05/12 08:23:15;;;;;;;57.40;53.50;;;;;;;15.19;100.00;101894.14;1981014;71;46778;-69
2022/05/12 08:29:01;;;;;;;55.97;52.77;;;;;;;14.90;100.00;101808.69;1814135;72;85740;-69
2022/05/12 08:34:45;;;;;;;56.10;52.77;;;;;;;15.68;100.00;101901.88;1894376;74;85484;-73
2022/05/12 08:40:34;;;;;;;51.03;48.23;;;;;;;15.58;100.00;101894.95;1933377;72;86298;-69
2022/05/12 08:46:23;;;;;;;55.50;52.10;;;;;;;16.30;100.00;101926.77;1928032;71;40221;-73
2022/05/12 08:52:16;;;;;;;43.17;40.57;;;;;;;16.01;100.00;101889.49;1986672;71;39615;-73
2022/05/12 08:58:02;;;;;;;33.03;31.17;;;;;;;16.01;100.00;101897.34;1842115;76;86239;-69
2022/05/12 09:03:56;;;;;;;48.77;46.17;;;;;;;16.54;100.00;101877.66;1884109;73;85901;-70
2022/05/12 09:13:02;;;;;;;25.17;23.77;;;;;;;16.61;100.00;101891.61;1845749;76;86472;-73
2022/05/12 09:18:47;;;;;;;32.93;31.03;;;;;;;16.80;100.00;101893.05;1886881;74;86264;-70
2022/05/12 09:24:34;;;;;;;30.77;28.67;;;;;;;16.81;100.00;101883.51;1854245;74;86779;-71
2022/05/12 09:30:35;;;;;;;18.03;16.80;;;;;;;17.34;100.00;101880.44;1915472;73;86699;-69
2022/05/12 09:39:43;;;;;;;18.20;17.00;;;;;;;17.55;100.00;101885.98;1790952;78;86016;-74
2022/05/12 09:45:35;;;;;;;16.23;15.07;;;;;;;16.93;100.00;101885.86;1808323;77;86637;-73
2022/05/12 09:51:35;;;;;;;12.97;12.27;;;;;;;16.96;100.00;101882.44;1801410;77;86325;-69
2022/05/12 09:57:39;;;;;;;13.93;13.13;;;;;;;17.14;100.00;101873.19;1799143;77;85932;-73
2022/05/12 10:00:15;;;;;;;13.78;12.88;;;;;;;17.46;100.00;101868.99;1744720;78;938829;-68
2022/05/12 10:12:25;;;;;;;12.47;11.70;;;;;;;16.58;100.00;101878.76;1985871;71;39440;-73
2022/05/12 10:18:17;;;;;;;12.20;11.40;;;;;;;17.31;100.00;101888.92;1977279;71;39607;-73
2022/05/12 10:24:24;;;;;;;12.13;11.23;;;;;;;17.68;100.00;101888.03;1830887;76;86643;-68
2022/05/12 10:30:43;;;;;;;11.10;10.50;;;;;;;17.37;100.00;101882.66;1984512;71;39846;-73
2022/05/12 10:36:42;;;;;;;11.77;10.97;;;;;;;16.89;100.00;101880.59;1858415;75;86708;-73
2022/05/12 10:42:36;;;;;;;12.07;11.20;;;;;;;17.16;100.00;101880.15;1909504;73;86319;-74
2022/05/12 10:48:48;;;;;;;11.73;10.87;;;;;;;16.94;100.00;101879.11;1867863;75;86512;-73
2022/05/12 10:58:04;;;;;;;11.87;11.00;;;;;;;17.20;100.00;101878.40;1832823;76;86909;-69
2022/05/12 11:04:03;;;;;;;11.60;10.80;;;;;;;16.94;100.00;101882.76;1838100;76;86579;-69
2022/05/12 11:09:52;;;;;;;11.70;11.00;;;;;;;17.93;100.00;101872.11;1874279;74;86134;-68
2022/05/12 11:12:26;;;;;;;12.00;10.80;;;;;;;17.93;100.00;101872.11;1823178;77;938836;-67
2022/05/12 11:18:14;;;;;;;11.47;10.80;;;;;;;17.44;100.00;101874.66;1987363;71;39437;-74
2022/05/12 11:24:19;;;;;;;12.70;11.60;;;;;;;18.09;100.00;101871.27;1837722;76;86041;-69
2022/05/12 11:26:56;;;;;;;12.33;11.63;;;;;;;18.23;100.00;101870.68;1797416;77;937044;-73
2022/05/12 11:29:44;;;;;;;11.80;11.13;;;;;;;18.54;100.00;101866.70;1798554;76;940986;-68
2022/05/12 11:32:26;;;;;;;11.10;10.27;;;;;;;18.57;100.00;101864.08;1799173;76;942257;-68
2022/05/12 11:38:11;;;;;;;12.03;11.00;;;;;;;18.08;100.00;101878.02;1893192;74;85621;-69
2022/05/12 11:44:26;;;;;;;11.90;10.97;;;;;;;18.01;100.00;101870.58;1825565;76;85970;-70
2022/05/12 11:47:20;;;;;;;11.20;10.50;;;;;;;17.94;100.00;101878.57;1754332;79;936870;-70
2022/05/12 11:53:20;;;;;;;12.87;11.87;;;;;;;17.99;100.00;101879.88;1983487;71;39613;-70
2022/05/12 11:59:50;;;;;;;11.33;10.47;;;;;;;17.92;100.00;101887.91;1924625;73;86426;-70
2022/05/12 12:06:03;;;;;;;11.10;10.40;;;;;;;18.00;100.00;101866.09;1836571;76;86225;-69
2022/05/12 12:12:00;;;;;;;12.50;11.53;;;;;;;17.87;100.00;101873.36;1835138;76;85413;-69
2022/05/12 12:18:47;;;;;;;12.20;11.30;;;;;;;17.77;100.00;101874.11;1982431;71;39641;-72
2022/05/12 12:22:13;;;;;;;11.87;11.07;;;;;;;17.77;100.00;101860.06;1898443;73;938910;-69
2022/05/12 12:28:29;;;;;;;11.67;10.93;;;;;;;17.72;100.00;101857.60;1856146;76;86362;-72
2022/05/12 12:34:19;;;;;;;11.93;11.13;;;;;;;17.96;100.00;101856.62;1985922;71;39642;-73
2022/05/12 12:40:40;;;;;;;11.77;11.07;;;;;;;18.30;100.00;101844.97;1975664;71;39711;-67
2022/05/12 12:46:33;;;;;;;11.53;10.83;;;;;;;18.32;100.00;101818.17;1904277;72;86660;-72
2022/05/12 12:52:22;;;;;;;11.27;10.40;;;;;;;18.35;100.00;101821.80;1986706;71;39657;-72
2022/05/12 12:58:06;;;;;;;11.90;11.20;;;;;;;18.18;100.00;101822.39;1828753;76;86678;-69
2022/05/12 13:03:54;;;;;;;12.00;11.10;;;;;;;18.05;100.00;101827.48;1876643;74;86085;-69
2022/05/12 13:09:44;;;;;;;11.23;10.63;;;;;;;18.60;100.00;101817.61;1857026;76;85944;-73
2022/05/12 13:15:32;;;;;;;11.67;11.03;;;;;;;18.47;100.00;101821.25;1912693;74;86660;-73
2022/05/12 13:21:23;;;;;;;11.70;10.87;;;;;;;18.18;100.00;101829.42;1986756;71;39589;-67
2022/05/12 13:27:21;;;;;;;12.23;11.33;;;;;;;18.32;100.00;101829.42;1981135;71;39493;-68
2022/05/12 13:33:08;;;;;;;12.13;11.20;;;;;;;18.26;100.00;101824.23;1847398;76;86566;-74
2022/05/12 13:38:55;;;;;;;12.00;11.30;;;;;;;18.19;100.00;101826.05;1810656;78;86264;-66
2022/05/12 13:44:42;;;;;;;12.17;11.40;;;;;;;18.14;100.00;101819.15;1873924;75;86806;-66
2022/05/12 13:50:36;;;;;;;11.23;10.63;;;;;;;18.40;100.00;101806.78;1934993;73;86137;-69
2022/05/12 13:56:31;;;;;;;11.50;10.90;;;;;;;18.53;100.00;101805.94;1975364;71;39598;-68
2022/05/12 14:02:19;;;;;;;12.57;11.73;;;;;;;18.39;100.00;101807.92;1985508;71;39640;-73
2022/05/12 14:08:09;;;;;;;11.80;11.10;;;;;;;18.68;100.00;101808.98;1961838;72;86008;-72
2022/05/12 14:20:14;;;;;;;11.67;10.83;;;;;;;18.39;100.00;101799.48;1841953;76;86443;-70
2022/05/12 14:25:58;;;;;;;11.77;11.07;;;;;;;18.58;100.00;101805.25;1860063;76;86117;-73
2022/05/12 14:31:44;;;;;;;11.63;10.93;;;;;;;18.61;100.00;101785.52;1883390;73;86077;-68
2022/05/12 14:37:32;;;;;;;12.37;11.57;;;;;;;18.56;100.00;101787.03;1910707;74;86411;-75
2022/05/12 14:43:16;;;;;;;12.63;11.57;;;;;;;18.46;100.00;101785.81;1977173;71;39620;-74
2022/05/12 14:49:04;;;;;;;12.87;11.83;;;;;;;18.45;100.00;101796.80;1854204;76;86685;-73
2022/05/12 14:58:06;;;;;;;12.03;11.23;;;;;;;18.29;100.00;101794.91;1873406;74;86304;-72
2022/05/12 15:03:55;;;;;;;12.40;11.50;;;;;;;18.21;100.00;101787.20;1895655;74;84985;-64
2022/05/12 15:09:47;;;;;;;12.20;11.30;;;;;;;18.44;100.00;101789.53;1906286;74;85657;-71
2022/05/12 15:15:38;;;;;;;12.03;11.33;;;;;;;18.37;100.00;101792.75;1909297;74;86483;-65
2022/05/12 15:21:26;;;;;;;12.20;11.50;;;;;;;18.28;100.00;101796.05;1922455;72;86379;-69
2022/05/12 15:27:11;;;;;;;11.87;11.17;;;;;;;18.46;100.00;101788.05;1875758;75;85710;-64
2022/05/12 15:32:59;;;;;;;12.17;11.33;;;;;;;18.48;100.00;101782.93;1881194;75;86322;-70
2022/05/12 15:38:45;;;;;;;11.80;11.10;;;;;;;18.27;100.00;101781.71;1877342;76;85438;-71
2022/05/12 15:44:32;;;;;;;11.47;10.70;;;;;;;18.12;100.00;101771.64;1928632;72;86022;-71
2022/05/12 15:50:23;;;;;;;11.70;10.90;;;;;;;18.13;100.00;101779.52;1954954;71;39623;-67
2022/05/12 15:56:06;;;;;;;11.83;11.03;;;;;;;18.04;100.00;101785.60;1848885;76;85370;-67
2022/05/12 16:01:50;;;;;;;11.50;10.60;;;;;;;17.91;100.00;101781.65;1871170;75;86468;-70
2022/05/12 16:07:35;;;;;;;11.70;10.87;;;;;;;17.68;100.00;101786.88;1806743;77;86813;-72
2022/05/12 16:13:23;;;;;;;11.00;10.20;;;;;;;17.57;100.00;101793.23;1977583;71;39669;-68
2022/05/12 16:19:09;;;;;;;10.90;10.30;;;;;;;17.52;100.00;101788.27;1904566;73;86260;-68
2022/05/12 16:24:53;;;;;;;11.17;10.33;;;;;;;17.74;100.00;101792.67;1801006;78;86471;-75
2022/05/12 16:30:39;;;;;;;11.87;11.07;;;;;;;17.44;100.00;101798.25;1860238;75;86476;-66
2022/05/12 16:36:22;;;;;;;12.03;11.17;;;;;;;17.27;100.00;101807.26;1976983;71;39700;-74
2022/05/12 16:42:09;;;;;;;11.87;11.10;;;;;;;16.85;100.00;101808.80;1827542;76;86748;-75
2022/05/12 16:47:53;;;;;;;11.77;10.80;;;;;;;16.89;100.00;101814.63;1807560;78;86617;-72
2022/05/12 16:53:39;;;;;;;12.60;11.80;;;;;;;16.64;100.00;101825.11;1864851;75;86577;-65
2022/05/12 16:59:22;;;;;;;11.53;10.83;;;;;;;16.59;100.00;101822.94;1922616;71;39419;-70
2022/05/12 17:05:09;;;;;;;11.07;10.37;;;;;;;16.45;100.00;101806.53;1851425;76;86432;-68
2022/05/12 17:10:55;;;;;;;11.43;10.80;;;;;;;16.57;100.00;101797.10;1809406;78;86505;-75
2022/05/12 17:16:40;;;;;;;11.80;10.87;;;;;;;16.65;100.00;101788.88;1947164;72;86431;-69
2022/05/12 17:22:23;;;;;;;11.70;11.00;;;;;;;17.18;100.00;101788.60;1980445;71;39480;-76
2022/05/12 17:28:08;;;;;;;12.20;11.13;;;;;;;16.99;100.00;101795.64;1840222;76;86050;-72
2022/05/12 17:33:52;;;;;;;11.33;10.70;;;;;;;16.89;100.00;101794.98;1809396;78;85751;-68
2022/05/12 17:39:39;;;;;;;11.13;10.43;;;;;;;16.81;100.00;101788.91;1801664;77;86001;-73
2022/05/12 17:45:24;;;;;;;11.03;10.43;;;;;;;16.87;100.00;101781.25;1867341;75;86531;-74
2022/05/12 17:51:11;;;;;;;11.10;10.50;;;;;;;16.85;100.00;101794.77;1812349;78;86200;-66
2022/05/12 17:56:56;;;;;;;11.87;11.27;;;;;;;16.70;100.00;101803.40;1904345;74;85388;-72
2022/05/12 18:02:40;;;;;;;11.27;10.50;;;;;;;16.72;100.00;101802.55;1873577;75;86381;-68
2022/05/12 18:08:27;;;;;;;11.00;10.30;;;;;;;16.38;100.00;101803.55;1912974;72;85360;-67
2022/05/12 18:14:11;;;;;;;11.33;10.73;;;;;;;16.30;100.00;101801.98;1978921;71;39715;-71
2022/05/12 18:19:57;;;;;;;11.80;10.93;;;;;;;16.30;100.00;101794.38;1905496;74;86322;-63
2022/05/12 18:25:42;;;;;;;11.57;10.90;;;;;;;16.33;100.00;101804.19;1886106;75;86631;-68
2022/05/12 18:31:27;;;;;;;11.53;10.90;;;;;;;16.29;100.00;101794.14;1913703;74;86319;-71
2022/05/12 18:37:15;;;;;;;11.30;10.60;;;;;;;16.36;100.00;101801.60;1987472;71;39659;-67
2022/05/12 18:43:00;;;;;;;11.70;10.80;;;;;;;16.32;100.00;101801.94;1851865;76;86554;-67
2022/05/12 18:48:46;;;;;;;11.77;11.13;;;;;;;16.34;100.00;101803.05;1852082;75;85521;-71
2022/05/12 18:54:30;;;;;;;11.47;10.83;;;;;;;16.27;100.00;101796.39;1924808;72;86303;-74
2022/05/12 19:00:17;;;;;;;11.50;10.67;;;;;;;16.26;100.00;101800.33;1968998;71;39574;-74
2022/05/12 19:06:02;;;;;;;11.57;10.67;;;;;;;16.21;100.00;101804.62;1975802;71;86326;-67
2022/05/12 19:11:47;;;;;;;11.53;10.60;;;;;;;16.23;100.00;101804.30;1882778;74;86378;-73
2022/05/12 19:17:32;;;;;;;11.53;10.70;;;;;;;16.11;100.00;101810.91;1926378;73;85286;-74
2022/05/12 19:23:20;;;;;;;11.87;10.97;;;;;;;16.00;100.00;101814.98;1957570;70;39663;-70
2022/05/12 19:25:52;;;;;;;12.23;11.23;;;;;;;16.00;100.00;101816.38;1875786;74;936840;-69
2022/05/12 19:31:37;;;;;;;12.93;12.13;;;;;;;15.93;100.00;101821.77;1804858;77;86014;-70
2022/05/12 19:37:22;;;;;;;12.83;12.13;;;;;;;15.78;100.00;101826.14;1983055;71;39369;-66
2022/05/12 19:43:10;;;;;;;13.90;12.77;;;;;;;15.75;100.00;101833.72;1845274;76;86483;-75
2022/05/12 19:48:56;;;;;;;14.37;13.57;;;;;;;15.76;100.00;101842.97;1809299;78;86355;-74
2022/05/12 19:54:42;;;;;;;15.33;14.50;;;;;;;15.63;100.00;101845.05;1871259;75;86711;-76
2022/05/12 20:00:29;;;;;;;15.80;14.77;;;;;;;15.57;100.00;101846.25;1942135;73;86503;-74
2022/05/12 20:06:17;;;;;;;17.10;16.00;;;;;;;15.44;100.00;101855.58;1986092;70;39611;-76
2022/05/12 20:12:01;;;;;;;16.80;15.87;;;;;;;15.52;100.00;101850.50;1864706;76;86290;-74
2022/05/12 20:17:46;;;;;;;17.80;16.80;;;;;;;15.43;100.00;101850.27;1887364;74;86313;-70
2022/05/12 20:23:35;;;;;;;17.97;16.50;;;;;;;15.36;100.00;101851.98;1806783;77;85707;-75
2022/05/12 20:29:19;;;;;;;19.53;18.40;;;;;;;15.45;100.00;101855.83;1982321;71;39558;-68
2022/05/12 20:35:07;;;;;;;20.67;19.37;;;;;;;15.37;100.00;101869.05;1837175;76;85392;-72
2022/05/12 20:40:53;;;;;;;21.13;20.03;;;;;;;15.34;100.00;101869.66;1840917;77;85968;-67
2022/05/12 20:46:39;;;;;;;23.87;22.30;;;;;;;15.19;100.00;101875.35;1808064;77;85652;-76
2022/05/12 20:52:24;;;;;;;24.37;22.87;;;;;;;15.15;100.00;101874.27;1822575;77;86865;-69
2022/05/12 20:58:07;;;;;;;26.67;24.93;;;;;;;15.13;100.00;101869.54;1803849;78;85615;-77
2022/05/12 21:03:50;;;;;;;28.13;26.33;;;;;;;15.01;100.00;101869.91;1875663;74;86095;-75
2022/05/12 21:09:34;;;;;;;29.53;27.50;;;;;;;14.84;100.00;101867.22;1873258;75;86444;-75
2022/05/12 21:15:19;;;;;;;31.40;29.40;;;;;;;14.92;100.00;101861.85;1983102;71;39552;-75
2022/05/12 21:21:05;;;;;;;31.67;29.77;;;;;;;14.88;100.00;101861.32;1843122;75;86911;-76
2022/05/12 21:26:54;;;;;;;33.07;31.00;;;;;;;14.92;100.00;101866.61;1879568;73;86028;-78
2022/05/12 21:32:43;;;;;;;34.60;32.40;;;;;;;14.79;100.00;101875.64;1852229;76;86250;-78
2022/05/12 21:41:37;;;;;;;36.87;34.70;;;;;;;14.82;100.00;101880.64;1943705;72;86520;-78
2022/05/12 21:44:09;;;;;;;38.05;35.75;;;;;;;14.80;100.00;101882.36;1822607;74;938704;-78
2022/05/12 21:49:55;;;;;;;37.07;34.97;;;;;;;14.92;100.00;101876.41;1796815;78;86618;-70
2022/05/12 21:55:40;;;;;;;38.27;35.97;;;;;;;14.86;100.00;101884.53;1821627;76;86265;-78
2022/05/12 22:01:31;;;;;;;37.80;35.50;;;;;;;14.90;100.00;101892.06;1938778;72;85522;-71
2022/05/12 22:07:17;;;;;;;38.80;36.57;;;;;;;14.88;100.00;101901.33;2010027;71;32795;-77
2022/05/12 22:13:04;;;;;;;42.17;39.57;;;;;;;14.73;100.00;101913.98;2004487;71;32781;-71
2022/05/12 22:18:49;;;;;;;47.57;44.60;;;;;;;14.58;100.00;101920.50;2007944;71;32894;-79
2022/05/12 22:24:33;;;;;;;51.13;47.97;;;;;;;14.35;100.00;101928.11;2000863;71;32778;-77
2022/05/12 22:30:18;;;;;;;53.77;50.57;;;;;;;14.39;100.00;101916.64;2011370;71;32886;-78
2022/05/12 22:36:03;;;;;;;52.40;49.50;;;;;;;14.31;100.00;101910.20;2018203;71;32882;-68
2022/05/12 22:41:48;;;;;;;52.07;49.20;;;;;;;14.19;100.00;101918.63;2009730;71;32842;-76
2022/05/12 22:47:32;;;;;;;51.40;48.53;;;;;;;14.09;100.00;101919.48;2011362;71;33359;-70
2022/05/12 22:53:16;;;;;;;46.87;44.27;;;;;;;14.09;100.00;101918.09;2002626;71;33317;-69
2022/05/12 22:58:59;;;;;;;43.03;40.77;;;;;;;14.17;100.00;101920.86;2008104;71;33022;-77
2022/05/12 23:04:44;;;;;;;40.20;38.10;;;;;;;14.11;100.00;101920.89;2016966;71;32846;-76
2022/05/12 23:10:28;;;;;;;36.50;34.37;;;;;;;14.09;100.00;101914.73;2004989;71;33343;-77
2022/05/12 23:16:13;;;;;;;36.50;34.40;;;;;;;14.16;100.00;101924.24;2015150;71;33381;-70
2022/05/12 23:21:58;;;;;;;37.87;35.87;;;;;;;14.11;100.00;101923.69;2000222;71;32883;-69
2022/05/12 23:27:43;;;;;;;38.90;36.70;;;;;;;14.05;100.00;101923.41;2008076;71;32828;-73
2022/05/12 23:33:29;;;;;;;40.73;38.23;;;;;;;14.02;100.00;101925.94;1997574;71;32867;-75
2022/05/12 23:39:13;;;;;;;44.07;41.47;;;;;;;14.05;100.00;101918.37;2011755;71;32865;-73
2022/05/12 23:44:59;;;;;;;44.53;42.10;;;;;;;14.09;100.00;101919.48;1997121;71;33017;-70
2022/05/12 23:50:37;;;;;;;46.67;44.20;;;;;;;14.00;100.00;101913.63;2007178;71;32701;-78
2022/05/12 23:56:21;;;;;;;46.33;43.80;;;;;;;14.04;100.00;101913.91;2016645;71;33397;-77
